createdAt,value
2022-10-21T00:01:43.484Z,49.75
2022-10-21T00:04:12.875Z,53.75
2022-10-21T00:06:42.350Z,56.00
2022-10-21T00:09:11.844Z,53.00
2022-10-21T00:11:41.337Z,56.00
2022-10-21T00:14:10.872Z,53.00
2022-10-21T00:16:40.340Z,61.25
2022-10-21T00:19:09.735Z,60.50
2022-10-21T00:21:39.337Z,61.50
2022-10-21T00:24:08.813Z,63.25
2022-10-21T00:26:38.626Z,65.00
2022-10-21T00:29:08.207Z,64.25
2022-10-21T00:31:37.850Z,58.25
2022-10-21T00:34:07.455Z,58.75
2022-10-21T00:36:36.871Z,61.25
2022-10-21T00:39:06.342Z,61.00
2022-10-21T00:41:35.857Z,60.25
2022-10-21T00:44:05.281Z,56.00
2022-10-21T00:46:43.129Z,61.00
2022-10-21T00:49:26.548Z,56.25
2022-10-21T00:51:57.980Z,55.50
2022-10-21T00:54:28.343Z,53.75
2022-10-21T00:56:58.550Z,52.25
2022-10-21T00:59:32.129Z,54.75
2022-10-21T01:02:01.686Z,58.50
2022-10-21T01:04:31.146Z,55.25
2022-10-21T01:07:02.048Z,54.00
2022-10-21T01:09:31.638Z,54.00
2022-10-21T01:12:03.534Z,51.25
2022-10-21T01:14:32.912Z,55.75
2022-10-21T01:17:02.353Z,55.25
2022-10-21T01:19:43.901Z,55.50
2022-10-21T01:22:25.617Z,55.75
2022-10-21T01:25:01.306Z,51.50
2022-10-21T01:27:37.566Z,53.00
2022-10-21T01:30:16.505Z,55.00
2022-10-21T01:32:52.337Z,48.25
2022-10-21T01:35:28.650Z,51.75
2022-10-21T01:37:58.469Z,56.00
2022-10-21T01:40:43.215Z,53.25
2022-10-21T01:43:23.704Z,53.00
2022-10-21T01:45:58.528Z,55.75
2022-10-21T01:48:35.256Z,52.75
2022-10-21T01:51:06.711Z,53.75
2022-10-21T01:53:42.297Z,53.25
2022-10-21T01:56:13.616Z,52.25
2022-10-21T01:58:45.039Z,53.75
2022-10-21T02:01:16.103Z,56.75
2022-10-21T02:03:49.022Z,54.00
2022-10-21T02:06:19.584Z,53.50
2022-10-21T02:08:49.096Z,47.00
2022-10-21T02:11:20.466Z,50.00
2022-10-21T02:13:53.726Z,51.00
2022-10-21T02:16:26.181Z,50.25
2022-10-21T02:18:56.721Z,53.00
2022-10-21T02:21:28.269Z,53.50
2022-10-21T02:24:06.695Z,52.00
2022-10-21T02:26:37.554Z,49.50
2022-10-21T02:29:07.701Z,49.50
2022-10-21T02:31:37.278Z,48.50
2022-10-21T02:34:16.297Z,47.00
2022-10-21T02:36:56.271Z,46.50
2022-10-21T02:39:30.187Z,49.00
2022-10-21T02:42:03.122Z,53.75
2022-10-21T02:44:34.016Z,45.25
2022-10-21T02:47:05.352Z,50.50
2022-10-21T02:49:35.041Z,51.75
2022-10-21T02:52:04.430Z,48.25
2022-10-21T02:54:33.924Z,48.00
2022-10-21T02:57:03.374Z,46.00
2022-10-21T02:59:32.885Z,45.25
2022-10-21T03:02:02.316Z,48.25
2022-10-21T03:04:31.764Z,45.25
2022-10-21T03:07:01.227Z,51.00
2022-10-21T03:09:30.689Z,43.00
2022-10-21T03:12:00.109Z,44.50
2022-10-21T03:14:29.524Z,46.00
2022-10-21T03:16:59.029Z,49.00
2022-10-21T03:19:28.448Z,42.50
2022-10-21T03:21:57.967Z,40.00
2022-10-21T03:24:28.729Z,47.00
2022-10-21T03:26:58.492Z,39.50
2022-10-21T03:29:28.165Z,38.00
2022-10-21T03:31:58.563Z,39.25
2022-10-21T03:34:27.995Z,41.75
2022-10-21T03:36:57.405Z,39.75
2022-10-21T03:39:26.933Z,38.25
2022-10-21T03:41:56.349Z,44.25
2022-10-21T03:44:25.797Z,41.75
2022-10-21T03:46:55.277Z,38.75
2022-10-21T03:49:25.041Z,36.50
2022-10-21T03:51:54.449Z,45.00
2022-10-21T03:54:23.957Z,39.50
2022-10-21T03:56:53.499Z,44.00
2022-10-21T03:59:22.880Z,44.25
2022-10-21T04:01:52.394Z,36.25
2022-10-21T04:04:21.957Z,35.50
2022-10-21T04:06:51.404Z,33.00
2022-10-21T04:09:20.918Z,35.50
2022-10-21T04:11:50.417Z,36.25
2022-10-21T04:14:21.352Z,33.50
2022-10-21T04:16:57.609Z,45.25
2022-10-21T04:19:32.253Z,58.75
2022-10-21T04:22:01.694Z,62.75
2022-10-21T04:24:32.133Z,67.50
2022-10-21T04:27:02.922Z,65.00
2022-10-21T04:29:32.580Z,64.00
2022-10-21T04:32:01.993Z,65.00
2022-10-21T04:34:31.401Z,63.00
2022-10-21T04:37:04.092Z,69.25
2022-10-21T04:39:34.982Z,70.00
2022-10-21T04:42:04.450Z,81.50
2022-10-21T04:44:33.948Z,75.00
2022-10-21T04:47:03.330Z,77.50
2022-10-21T04:49:32.817Z,81.00
2022-10-21T04:52:02.310Z,81.25
2022-10-21T04:54:31.958Z,76.25
2022-10-21T04:57:01.507Z,75.50
2022-10-21T04:59:31.966Z,89.00
2022-10-21T05:04:31.564Z,78.25
2022-10-21T05:07:00.965Z,82.50
2022-10-21T05:09:30.367Z,86.00
2022-10-21T05:11:59.877Z,92.00
2022-10-21T05:14:29.302Z,90.25
2022-10-21T05:16:59.377Z,91.25
2022-10-21T05:19:31.219Z,94.00
2022-10-21T05:22:01.595Z,97.25
2022-10-21T05:24:31.083Z,86.75
2022-10-21T05:27:00.487Z,87.75
2022-10-21T05:29:30.945Z,81.50
2022-10-21T05:32:00.612Z,75.75
2022-10-21T05:34:30.053Z,86.25
2022-10-21T05:36:59.615Z,83.75
2022-10-21T05:39:29.244Z,79.75
2022-10-21T05:41:58.773Z,78.50
2022-10-21T05:44:28.144Z,75.50
2022-10-21T05:46:58.611Z,84.25
2022-10-21T05:49:28.113Z,73.50
2022-10-21T05:51:57.627Z,76.00
2022-10-21T05:54:27.084Z,78.25
2022-10-21T05:57:00.091Z,74.75
2022-10-21T05:59:30.294Z,75.50
2022-10-21T06:01:59.785Z,78.50
2022-10-21T06:04:29.223Z,72.50
2022-10-21T06:06:59.437Z,85.00
2022-10-21T06:09:28.892Z,86.25
2022-10-21T06:11:59.401Z,74.75
2022-10-21T06:14:30.239Z,75.25
2022-10-21T06:17:00.310Z,75.25
2022-10-21T06:19:29.665Z,78.00
2022-10-21T06:21:59.955Z,74.75
2022-10-21T06:24:31.282Z,78.50
2022-10-21T06:27:01.247Z,73.75
2022-10-21T06:29:30.671Z,73.00
2022-10-21T06:32:00.154Z,76.25
2022-10-21T06:34:29.546Z,73.25
2022-10-21T06:36:59.057Z,68.75
2022-10-21T06:39:28.570Z,69.75
2022-10-21T06:41:58.021Z,67.25
2022-10-21T06:44:42.038Z,75.25
2022-10-21T06:47:11.903Z,69.75
2022-10-21T06:49:41.430Z,69.50
2022-10-21T06:52:10.920Z,67.50
2022-10-21T06:54:40.353Z,65.00
2022-10-21T06:57:09.743Z,70.00
2022-10-21T06:59:39.145Z,72.50
2022-10-21T07:02:08.770Z,67.00
2022-10-21T07:04:38.604Z,62.75
2022-10-21T07:07:08.057Z,68.50
2022-10-21T07:09:37.531Z,69.50
2022-10-21T07:12:07.392Z,70.25
2022-10-21T07:14:36.875Z,80.50
2022-10-21T07:17:06.582Z,82.50
2022-10-21T07:19:36.062Z,77.75
2022-10-21T07:22:05.468Z,78.00
2022-10-21T07:24:35.029Z,77.50
2022-10-21T07:27:05.344Z,76.25
2022-10-21T07:29:35.035Z,76.00
2022-10-21T07:32:04.521Z,78.25
2022-10-21T07:34:33.936Z,86.50
2022-10-21T07:37:03.419Z,89.25
2022-10-21T07:39:32.858Z,81.50
2022-10-21T07:42:02.292Z,80.00
2022-10-21T07:44:31.803Z,79.75
2022-10-21T07:47:01.278Z,77.50
2022-10-21T07:49:30.791Z,89.25
2022-10-21T07:52:00.234Z,79.75
2022-10-21T07:54:29.818Z,83.75
2022-10-21T07:56:59.901Z,81.25
2022-10-21T07:59:29.478Z,81.00
2022-10-21T08:01:59.002Z,76.25
2022-10-21T08:04:31.189Z,75.00
2022-10-21T08:07:01.163Z,79.25
2022-10-21T08:09:30.618Z,80.50
2022-10-21T08:12:00.332Z,73.00
2022-10-21T08:14:29.786Z,71.00
2022-10-21T08:16:59.310Z,76.00
2022-10-21T08:19:30.941Z,74.50
2022-10-21T08:22:00.817Z,75.75
2022-10-21T08:24:30.736Z,72.00
2022-10-21T08:27:01.268Z,73.25
2022-10-21T08:29:30.810Z,70.50
2022-10-21T08:32:00.410Z,65.00
2022-10-21T08:34:29.847Z,72.25
2022-10-21T08:36:59.414Z,68.00
2022-10-21T08:39:29.005Z,69.75
2022-10-21T08:42:14.286Z,73.75
2022-10-21T08:44:55.137Z,72.25
2022-10-21T08:47:27.523Z,69.75
2022-10-21T08:49:57.041Z,70.25
2022-10-21T08:52:33.717Z,72.25
2022-10-21T08:55:07.989Z,69.00
2022-10-21T08:57:37.722Z,68.50
2022-10-21T09:00:16.803Z,66.75
2022-10-21T09:03:06.310Z,70.00
2022-10-21T09:05:40.064Z,69.50
2022-10-21T09:08:15.656Z,66.00
2022-10-21T09:10:45.026Z,69.75
2022-10-21T09:13:27.949Z,68.25
2022-10-21T09:16:12.663Z,66.75
2022-10-21T09:18:50.320Z,67.75
2022-10-21T09:21:25.759Z,72.25
2022-10-21T09:23:55.403Z,68.25
2022-10-21T09:26:40.089Z,71.75
2022-10-21T09:29:18.604Z,71.00
2022-10-21T09:31:54.337Z,69.00
2022-10-21T09:34:35.636Z,72.50
2022-10-21T09:37:08.875Z,74.25
2022-10-21T09:39:43.433Z,74.50
2022-10-21T09:42:35.409Z,75.75
2022-10-21T09:45:05.617Z,80.75
2022-10-21T09:47:35.203Z,84.00
2022-10-21T09:50:08.223Z,79.25
2022-10-21T09:52:39.542Z,78.50
2022-10-21T09:55:13.880Z,77.50
2022-10-21T09:57:47.261Z,79.75
2022-10-21T10:00:17.124Z,75.75
2022-10-21T10:02:48.063Z,77.00
2022-10-21T10:05:36.959Z,80.75
2022-10-21T10:08:24.809Z,78.00
2022-10-21T10:11:02.913Z,80.50
2022-10-21T10:13:33.441Z,79.75
2022-10-21T10:16:20.891Z,82.00
2022-10-21T10:18:51.280Z,84.25
2022-10-21T10:21:24.488Z,79.00
2022-10-21T10:23:55.575Z,81.00
2022-10-21T10:26:30.426Z,78.75
2022-10-21T10:29:26.108Z,78.00
2022-10-21T10:31:57.401Z,80.25
2022-10-21T10:34:34.998Z,80.50
2022-10-21T10:37:07.853Z,76.00
2022-10-21T10:39:41.062Z,85.25
2022-10-21T10:42:10.833Z,85.00
2022-10-21T10:44:42.570Z,77.75
2022-10-21T10:47:20.738Z,78.25
2022-10-21T10:49:52.741Z,88.75
2022-10-21T10:52:25.533Z,78.50
2022-10-21T10:55:27.393Z,83.75
2022-10-21T10:58:11.485Z,77.75
2022-10-21T11:00:45.681Z,88.25
2022-10-21T11:03:20.159Z,80.50
2022-10-21T11:05:55.833Z,79.25
2022-10-21T11:08:34.675Z,77.00
2022-10-21T11:11:06.122Z,87.00
2022-10-21T11:13:40.075Z,87.75
2022-10-21T11:16:21.262Z,84.00
2022-10-21T11:18:54.172Z,92.50
2022-10-21T11:21:23.990Z,78.00
2022-10-21T11:24:07.947Z,88.00
2022-10-21T11:26:48.239Z,83.50
2022-10-21T11:29:29.785Z,82.00
2022-10-21T11:32:11.694Z,83.25
2022-10-21T11:34:55.387Z,78.75
2022-10-21T11:37:34.461Z,78.50
2022-10-21T11:40:12.642Z,90.75
2022-10-21T11:42:47.622Z,82.25
2022-10-21T11:45:30.744Z,98.75
2022-10-21T11:48:06.146Z,91.50
2022-10-21T11:50:52.143Z,80.25
2022-10-21T11:53:29.173Z,83.25
2022-10-21T11:56:16.509Z,96.25
2022-10-21T11:58:49.003Z,95.00
2022-10-21T12:01:25.209Z,88.25
2022-10-21T12:04:10.633Z,94.00
2022-10-21T12:06:50.736Z,88.50
2022-10-21T12:09:27.866Z,86.75
2022-10-21T12:12:05.860Z,91.75
2022-10-21T12:14:38.319Z,93.25
2022-10-21T12:17:10.586Z,102.00
2022-10-21T12:19:40.443Z,94.25
2022-10-21T12:22:12.637Z,92.00
2022-10-21T12:24:46.410Z,87.00
2022-10-21T12:27:19.086Z,92.00
2022-10-21T12:29:49.454Z,86.25
2022-10-21T12:32:33.136Z,97.25
2022-10-21T12:35:03.592Z,86.50
2022-10-21T12:37:42.300Z,89.75
2022-10-21T12:40:18.987Z,88.00
2022-10-21T12:42:50.164Z,102.00
2022-10-21T12:45:30.528Z,102.75
2022-10-21T12:48:01.163Z,92.25
2022-10-21T12:50:31.866Z,94.00
2022-10-21T12:53:24.927Z,92.75
2022-10-21T12:55:56.531Z,96.00
2022-10-21T12:58:32.963Z,95.00
2022-10-21T13:01:04.288Z,99.75
2022-10-21T13:03:46.819Z,93.25
2022-10-21T13:06:16.693Z,99.25
2022-10-21T13:08:46.177Z,89.75
2022-10-21T13:11:22.185Z,100.75
2022-10-21T13:14:11.519Z,87.00
2022-10-21T13:16:42.827Z,95.25
2022-10-21T13:19:18.658Z,89.25
2022-10-21T13:21:50.336Z,90.25
2022-10-21T13:24:33.626Z,100.00
2022-10-21T13:27:05.801Z,103.25
2022-10-21T13:29:47.593Z,110.75
2022-10-21T13:32:20.966Z,99.75
2022-10-21T13:34:51.037Z,101.75
2022-10-21T13:37:30.886Z,96.50
2022-10-21T13:40:03.142Z,96.75
2022-10-21T13:42:37.760Z,93.50
2022-10-21T13:45:23.132Z,97.00
2022-10-21T13:48:02.866Z,105.50
2022-10-21T13:50:35.128Z,94.00
2022-10-21T13:53:07.526Z,95.00
2022-10-21T13:55:37.373Z,96.50
2022-10-21T13:58:07.098Z,103.25
2022-10-21T14:00:37.177Z,90.00
2022-10-21T14:03:07.612Z,92.50
2022-10-21T14:05:39.342Z,97.75
2022-10-21T14:08:19.415Z,105.75
2022-10-21T14:10:49.475Z,99.75
2022-10-21T14:13:22.519Z,98.50
2022-10-21T14:15:53.372Z,93.50
2022-10-21T14:18:30.243Z,94.50
2022-10-21T14:21:03.002Z,97.00
2022-10-21T14:23:32.795Z,99.00
2022-10-21T14:26:10.174Z,108.50
2022-10-21T14:28:41.111Z,99.75
2022-10-21T14:31:15.179Z,98.00
2022-10-21T14:33:47.817Z,102.75
2022-10-21T14:36:21.259Z,105.00
2022-10-21T14:38:54.377Z,101.25
2022-10-21T14:41:28.591Z,99.75
2022-10-21T14:44:00.759Z,107.25
2022-10-21T14:46:30.758Z,106.00
2022-10-21T14:49:02.837Z,96.50
2022-10-21T14:51:39.343Z,101.00
2022-10-21T14:54:19.910Z,109.75
2022-10-21T14:56:50.480Z,103.75
2022-10-21T14:59:43.060Z,102.75
2022-10-21T15:02:22.791Z,91.75
2022-10-21T15:04:56.033Z,96.50
2022-10-21T15:07:30.371Z,102.25
2022-10-21T15:10:07.031Z,95.00
2022-10-21T15:12:44.127Z,102.50
2022-10-21T15:15:32.417Z,99.50
2022-10-21T15:18:05.240Z,105.25
2022-10-21T15:20:37.646Z,105.25
2022-10-21T15:23:07.525Z,85.25
2022-10-21T15:25:40.031Z,106.00
2022-10-21T15:28:12.725Z,99.00
2022-10-21T15:30:43.758Z,95.25
2022-10-21T15:33:14.874Z,94.50
2022-10-21T15:35:44.988Z,96.50
2022-10-21T15:38:14.601Z,90.75
2022-10-21T15:40:44.450Z,94.00
2022-10-21T15:43:14.202Z,90.50
2022-10-21T15:45:43.948Z,94.25
2022-10-21T15:48:15.324Z,81.50
2022-10-21T15:50:46.076Z,85.50
2022-10-21T15:53:16.288Z,82.00
2022-10-21T15:55:46.030Z,87.50
2022-10-21T15:58:15.592Z,79.75
2022-10-21T16:00:45.337Z,77.50
2022-10-21T16:03:15.123Z,87.25
2022-10-21T16:05:44.898Z,79.00
2022-10-21T16:08:14.831Z,78.50
2022-10-21T16:10:49.231Z,80.50
2022-10-21T16:13:19.292Z,78.00
2022-10-21T16:15:48.974Z,75.75
2022-10-21T16:18:18.550Z,78.00
2022-10-21T16:20:48.152Z,75.75
2022-10-21T16:23:17.798Z,74.75
2022-10-21T16:25:47.401Z,76.50
2022-10-21T16:28:17.086Z,75.50
2022-10-21T16:30:46.654Z,74.50
2022-10-21T16:33:16.251Z,76.75
2022-10-21T16:35:49.955Z,75.00
2022-10-21T16:40:50.655Z,76.00
2022-10-21T16:43:20.082Z,78.25
2022-10-21T16:45:50.611Z,74.50
2022-10-21T16:48:20.152Z,77.00
2022-10-21T16:50:49.705Z,70.00
2022-10-21T16:53:19.539Z,72.50
2022-10-21T16:55:49.045Z,73.50
2022-10-21T16:58:18.559Z,73.00
2022-10-21T17:00:50.177Z,72.50
2022-10-21T17:03:19.853Z,71.75
2022-10-21T17:05:51.851Z,73.75
2022-10-21T17:08:21.315Z,72.00
2022-10-21T17:10:50.925Z,75.25
2022-10-21T17:13:20.396Z,70.00
2022-10-21T17:15:49.813Z,67.75
2022-10-21T17:18:19.285Z,68.50
2022-10-21T17:20:50.866Z,70.25
2022-10-21T17:23:20.535Z,68.75
2022-10-21T17:25:49.893Z,70.50
2022-10-21T17:28:19.305Z,74.00
2022-10-21T17:30:48.871Z,73.00
2022-10-21T17:33:18.671Z,79.25
2022-10-21T17:35:48.064Z,88.25
2022-10-21T17:38:17.500Z,85.00
2022-10-21T17:40:46.982Z,83.75
2022-10-21T17:43:16.448Z,90.00
2022-10-21T17:45:45.889Z,89.50
2022-10-21T17:48:15.299Z,91.50
2022-10-21T17:50:44.784Z,93.50
2022-10-21T17:53:14.247Z,105.00
2022-10-21T17:55:43.690Z,98.50
2022-10-21T17:58:13.054Z,91.50
2022-10-21T18:00:44.627Z,110.00
2022-10-21T18:03:19.271Z,111.25
2022-10-21T18:05:49.044Z,99.75
2022-10-21T18:08:18.506Z,113.00
2022-10-21T18:10:58.232Z,112.00
2022-10-21T18:13:28.798Z,102.25
2022-10-21T18:16:03.371Z,103.50
2022-10-21T18:18:32.899Z,101.25
2022-10-21T18:21:12.567Z,104.00
2022-10-21T18:23:43.434Z,107.00
2022-10-21T18:26:18.447Z,106.75
2022-10-21T18:28:52.044Z,108.25
2022-10-21T18:31:25.360Z,102.25
2022-10-21T18:33:56.283Z,95.50
2022-10-21T18:36:26.031Z,107.00
2022-10-21T18:38:55.638Z,105.75
2022-10-21T18:41:25.003Z,104.00
2022-10-21T18:43:55.845Z,107.25
2022-10-21T18:46:25.574Z,96.75
2022-10-21T18:48:54.963Z,106.25
2022-10-21T18:51:25.275Z,97.50
2022-10-21T18:53:54.775Z,103.50
2022-10-21T18:56:25.720Z,105.50
2022-10-21T18:58:57.628Z,108.50
2022-10-21T19:01:27.867Z,101.25
2022-10-21T19:03:58.044Z,88.25
2022-10-21T19:06:42.728Z,96.25
2022-10-21T19:09:20.068Z,92.25
2022-10-21T19:11:49.916Z,88.75
2022-10-21T19:14:19.342Z,98.50
2022-10-21T19:16:50.187Z,79.25
2022-10-21T19:19:19.711Z,82.50
2022-10-21T19:21:49.221Z,84.75
2022-10-21T19:24:18.682Z,76.75
2022-10-21T19:26:48.734Z,79.50
2022-10-21T19:29:19.650Z,79.00
2022-10-21T19:31:49.121Z,76.00
2022-10-21T19:34:21.024Z,79.50
2022-10-21T19:36:51.293Z,76.00
2022-10-21T19:39:21.123Z,74.75
2022-10-21T19:41:50.657Z,75.25
2022-10-21T19:44:20.110Z,74.00
2022-10-21T19:46:49.596Z,75.25
2022-10-21T19:49:18.973Z,73.75
2022-10-21T19:51:48.369Z,70.50
2022-10-21T19:54:17.827Z,70.75
2022-10-21T19:56:47.256Z,68.00
2022-10-21T19:59:19.206Z,72.00
2022-10-21T20:01:48.792Z,67.00
2022-10-21T20:04:18.406Z,69.00
2022-10-21T20:06:49.181Z,68.50
2022-10-21T20:09:18.602Z,69.00
2022-10-21T20:11:47.997Z,65.75
2022-10-21T20:14:18.084Z,62.50
2022-10-21T20:16:49.989Z,61.00
2022-10-21T20:19:19.989Z,63.50
2022-10-21T20:21:50.641Z,65.75
2022-10-21T20:24:20.130Z,64.00
2022-10-21T20:26:52.631Z,58.00
2022-10-21T20:29:22.063Z,59.75
2022-10-21T20:31:51.450Z,61.75
2022-10-21T20:34:21.044Z,58.00
2022-10-21T20:36:50.550Z,56.25
2022-10-21T20:39:20.038Z,62.00
2022-10-21T20:41:50.563Z,59.50
2022-10-21T20:44:19.969Z,56.50
2022-10-21T20:46:49.456Z,58.75
2022-10-21T20:49:18.935Z,56.75
2022-10-21T20:51:48.476Z,56.50
2022-10-21T20:54:19.052Z,61.75
2022-10-21T20:56:48.506Z,56.00
2022-10-21T20:59:18.232Z,57.00
2022-10-21T21:01:48.516Z,56.00
2022-10-21T21:04:18.537Z,57.00
2022-10-21T21:06:49.107Z,52.25
2022-10-21T21:12:10.243Z,56.75
2022-10-21T21:14:39.666Z,50.00
2022-10-21T21:17:09.303Z,50.75
2022-10-21T21:19:40.679Z,50.50
2022-10-21T21:22:10.452Z,48.75
2022-10-21T21:24:40.065Z,51.00
2022-10-21T21:27:09.530Z,53.00
2022-10-21T21:29:39.145Z,49.50
2022-10-21T21:32:08.794Z,51.00
2022-10-21T21:34:38.330Z,43.50
2022-10-21T21:37:07.770Z,47.00
2022-10-21T21:39:37.152Z,49.75
2022-10-21T21:42:06.664Z,50.25
2022-10-21T21:44:36.287Z,44.25
2022-10-21T21:47:05.732Z,45.25
2022-10-21T21:49:35.194Z,47.75
2022-10-21T21:52:04.651Z,40.00
2022-10-21T21:54:34.204Z,38.00
2022-10-21T21:57:26.712Z,43.75
2022-10-21T21:59:53.323Z,42.75
2022-10-21T22:02:22.683Z,40.00
2022-10-21T22:04:52.101Z,42.00
2022-10-21T22:07:21.775Z,44.75
2022-10-21T22:09:51.255Z,44.00
2022-10-21T22:12:23.091Z,37.50
2022-10-21T22:14:52.831Z,44.00
2022-10-21T22:17:22.274Z,35.75
2022-10-21T22:19:53.807Z,37.50
2022-10-21T22:22:23.622Z,32.75
2022-10-21T22:24:53.383Z,32.00
2022-10-21T22:27:22.787Z,35.25
2022-10-21T22:29:52.273Z,30.00
2022-10-21T22:32:21.700Z,29.50
2022-10-21T22:34:51.152Z,38.00
2022-10-21T22:37:20.531Z,36.75
2022-10-21T22:39:50.049Z,33.50
2022-10-21T22:42:19.732Z,31.00
2022-10-21T22:44:49.125Z,32.25
2022-10-21T22:47:18.689Z,34.50
2022-10-21T22:49:48.178Z,38.00
2022-10-21T22:52:17.676Z,32.50
2022-10-21T22:54:49.604Z,30.50
2022-10-21T22:57:19.632Z,31.25
2022-10-21T22:59:53.127Z,32.00
2022-10-21T23:02:23.200Z,28.75
2022-10-21T23:04:52.691Z,24.50
2022-10-21T23:07:22.211Z,31.50
2022-10-21T23:09:52.838Z,34.50
2022-10-21T23:12:22.212Z,31.25
2022-10-21T23:14:51.692Z,32.75
2022-10-21T23:17:21.226Z,26.50
2022-10-21T23:19:50.702Z,27.25
2022-10-21T23:22:20.489Z,28.00
2022-10-21T23:24:50.102Z,28.75
2022-10-21T23:27:19.526Z,24.25
2022-10-21T23:29:48.933Z,29.00
2022-10-21T23:32:18.401Z,28.75
2022-10-21T23:34:47.902Z,24.75
2022-10-21T23:37:17.619Z,26.50
2022-10-21T23:39:47.271Z,22.50
2022-10-21T23:42:16.779Z,25.00
2022-10-21T23:44:46.355Z,25.50
2022-10-21T23:47:15.846Z,22.75
2022-10-21T23:49:45.297Z,24.50
2022-10-21T23:52:14.746Z,25.00
2022-10-21T23:54:44.129Z,30.50
2022-10-21T23:57:13.627Z,24.50
2022-10-21T23:59:43.071Z,25.00
